Tring-Jonction, Canada
Current Conditions -  °F | °C
As of 12:41 PM on Saturday 20 Dec 2014 (Local Time) from CYQB Reporting Station
Light Snow Light Snow  
Wind Chill: 16°   Ceiling: 1800
Heat Index: 16°   Visibility: 5mi
Dew Point: 12°   Wind: 0mph
Humidity: 86%   Direction: NA
Pressure: 30.36"   Gusts: NA
Location:  46.27°N, 71°W
Report Text: CYQB 201741Z 00000KT 5SM -SN BR FEW004 OVC018 M09/M11 A3036 RMK SF1SC7 SLP286
Loading
Personal Weather Stations






























Interactive Weather Map New forecast layout! Learn more

10-Day Weather Forecast

Advertisements
Track Severe Weather on mobile